sensor_id;sensor_type;location;lat;lon;timestamp;P1;durP1;ratioP1;P2;durP2;ratioP2
75698;SDS011;64313;51.018;13.742;2023-10-19T00:01:14;8.00;;;3.67;;
75698;SDS011;64313;51.018;13.742;2023-10-19T00:03:43;8.75;;;4.05;;
75698;SDS011;64313;51.018;13.742;2023-10-19T00:06:14;7.90;;;3.45;;
75698;SDS011;64313;51.018;13.742;2023-10-19T00:08:40;9.40;;;3.90;;
75698;SDS011;64313;51.018;13.742;2023-10-19T00:11:08;8.60;;;3.33;;
75698;SDS011;64313;51.018;13.742;2023-10-19T00:13:36;8.32;;;3.70;;
75698;SDS011;64313;51.018;13.742;2023-10-19T00:16:03;7.10;;;3.17;;
75698;SDS011;64313;51.018;13.742;2023-10-19T00:18:48;7.05;;;3.47;;
75698;SDS011;64313;51.018;13.742;2023-10-19T00:21:14;6.57;;;3.17;;
75698;SDS011;64313;51.018;13.742;2023-10-19T00:23:53;7.72;;;3.50;;
75698;SDS011;64313;51.018;13.742;2023-10-19T00:26:23;6.63;;;3.25;;
75698;SDS011;64313;51.018;13.742;2023-10-19T00:29:00;10.25;;;3.80;;
75698;SDS011;64313;51.018;13.742;2023-10-19T00:31:39;11.00;;;3.83;;
75698;SDS011;64313;51.018;13.742;2023-10-19T00:34:06;7.15;;;3.28;;
75698;SDS011;64313;51.018;13.742;2023-10-19T00:36:31;9.63;;;4.00;;
75698;SDS011;64313;51.018;13.742;2023-10-19T00:38:59;7.15;;;3.78;;
75698;SDS011;64313;51.018;13.742;2023-10-19T00:41:30;8.80;;;3.78;;
75698;SDS011;64313;51.018;13.742;2023-10-19T00:43:56;7.25;;;3.42;;
75698;SDS011;64313;51.018;13.742;2023-10-19T00:46:27;7.95;;;3.70;;
75698;SDS011;64313;51.018;13.742;2023-10-19T00:49:08;7.40;;;3.35;;
75698;SDS011;64313;51.018;13.742;2023-10-19T00:57:03;8.80;;;3.72;;
75698;SDS011;64313;51.018;13.742;2023-10-19T00:59:38;8.65;;;3.88;;
75698;SDS011;64313;51.018;13.742;2023-10-19T01:02:15;7.88;;;3.80;;
75698;SDS011;64313;51.018;13.742;2023-10-19T01:04:51;9.13;;;3.90;;
75698;SDS011;64313;51.018;13.742;2023-10-19T01:07:26;9.20;;;4.00;;
75698;SDS011;64313;51.018;13.742;2023-10-19T01:09:57;11.43;;;4.50;;
75698;SDS011;64313;51.018;13.742;2023-10-19T01:12:45;7.55;;;4.10;;
75698;SDS011;64313;51.018;13.742;2023-10-19T01:15:14;9.25;;;4.05;;
75698;SDS011;64313;51.018;13.742;2023-10-19T01:17:53;7.78;;;3.72;;
75698;SDS011;64313;51.018;13.742;2023-10-19T01:20:28;9.55;;;3.95;;
75698;SDS011;64313;51.018;13.742;2023-10-19T01:22:55;11.20;;;4.07;;
75698;SDS011;64313;51.018;13.742;2023-10-19T01:28:15;8.02;;;3.83;;
75698;SDS011;64313;51.018;13.742;2023-10-19T01:30:42;8.65;;;4.05;;
75698;SDS011;64313;51.018;13.742;2023-10-19T01:33:09;8.45;;;3.45;;
75698;SDS011;64313;51.018;13.742;2023-10-19T01:35:44;7.70;;;3.80;;
75698;SDS011;64313;51.018;13.742;2023-10-19T01:38:28;9.05;;;4.07;;
75698;SDS011;64313;51.018;13.742;2023-10-19T01:40:58;8.68;;;4.10;;
75698;SDS011;64313;51.018;13.742;2023-10-19T01:43:28;9.02;;;4.32;;
75698;SDS011;64313;51.018;13.742;2023-10-19T01:45:59;10.32;;;4.10;;
75698;SDS011;64313;51.018;13.742;2023-10-19T01:48:41;7.47;;;3.85;;
75698;SDS011;64313;51.018;13.742;2023-10-19T01:51:08;8.25;;;4.03;;
75698;SDS011;64313;51.018;13.742;2023-10-19T01:53:38;10.32;;;4.00;;
75698;SDS011;64313;51.018;13.742;2023-10-19T01:56:08;9.65;;;4.38;;
75698;SDS011;64313;51.018;13.742;2023-10-19T01:58:38;8.00;;;3.50;;
75698;SDS011;64313;51.018;13.742;2023-10-19T02:01:05;9.88;;;4.00;;
75698;SDS011;64313;51.018;13.742;2023-10-19T02:03:35;10.48;;;4.57;;
75698;SDS011;64313;51.018;13.742;2023-10-19T02:06:02;13.75;;;4.25;;
75698;SDS011;64313;51.018;13.742;2023-10-19T02:08:56;11.18;;;4.80;;
75698;SDS011;64313;51.018;13.742;2023-10-19T02:11:34;8.27;;;4.45;;
75698;SDS011;64313;51.018;13.742;2023-10-19T02:14:03;14.77;;;4.70;;
75698;SDS011;64313;51.018;13.742;2023-10-19T02:16:37;9.23;;;4.93;;
75698;SDS011;64313;51.018;13.742;2023-10-19T02:19:03;13.43;;;5.20;;
75698;SDS011;64313;51.018;13.742;2023-10-19T02:21:28;9.30;;;4.72;;
75698;SDS011;64313;51.018;13.742;2023-10-19T02:23:55;10.88;;;4.32;;
75698;SDS011;64313;51.018;13.742;2023-10-19T02:26:22;9.20;;;4.18;;
75698;SDS011;64313;51.018;13.742;2023-10-19T02:28:51;8.05;;;4.40;;
75698;SDS011;64313;51.018;13.742;2023-10-19T02:31:17;9.18;;;5.18;;
75698;SDS011;64313;51.018;13.742;2023-10-19T02:33:45;10.48;;;5.38;;
75698;SDS011;64313;51.018;13.742;2023-10-19T02:36:11;11.43;;;5.45;;
75698;SDS011;64313;51.018;13.742;2023-10-19T02:38:39;11.07;;;4.40;;
75698;SDS011;64313;51.018;13.742;2023-10-19T02:41:05;9.30;;;5.10;;
75698;SDS011;64313;51.018;13.742;2023-10-19T02:43:31;9.57;;;4.63;;
75698;SDS011;64313;51.018;13.742;2023-10-19T02:45:58;9.02;;;4.88;;
75698;SDS011;64313;51.018;13.742;2023-10-19T02:48:24;12.35;;;5.20;;
75698;SDS011;64313;51.018;13.742;2023-10-19T02:50:50;8.93;;;5.10;;
75698;SDS011;64313;51.018;13.742;2023-10-19T02:53:15;10.57;;;5.28;;
75698;SDS011;64313;51.018;13.742;2023-10-19T02:55:43;15.48;;;5.22;;
75698;SDS011;64313;51.018;13.742;2023-10-19T02:58:09;10.77;;;5.15;;
75698;SDS011;64313;51.018;13.742;2023-10-19T03:00:36;8.88;;;4.88;;
75698;SDS011;64313;51.018;13.742;2023-10-19T03:03:02;8.77;;;4.68;;
75698;SDS011;64313;51.018;13.742;2023-10-19T03:05:30;9.50;;;5.07;;
75698;SDS011;64313;51.018;13.742;2023-10-19T03:07:56;8.85;;;4.68;;
75698;SDS011;64313;51.018;13.742;2023-10-19T03:10:22;11.30;;;4.70;;
75698;SDS011;64313;51.018;13.742;2023-10-19T03:13:00;10.02;;;5.53;;
75698;SDS011;64313;51.018;13.742;2023-10-19T03:15:26;9.13;;;4.90;;
75698;SDS011;64313;51.018;13.742;2023-10-19T03:17:55;10.32;;;5.38;;
75698;SDS011;64313;51.018;13.742;2023-10-19T03:20:21;9.93;;;5.22;;
75698;SDS011;64313;51.018;13.742;2023-10-19T03:22:49;12.43;;;6.03;;
75698;SDS011;64313;51.018;13.742;2023-10-19T03:25:15;12.57;;;5.40;;
75698;SDS011;64313;51.018;13.742;2023-10-19T03:27:59;9.57;;;5.57;;
75698;SDS011;64313;51.018;13.742;2023-10-19T03:30:34;11.30;;;5.90;;
75698;SDS011;64313;51.018;13.742;2023-10-19T03:33:05;11.95;;;5.60;;
75698;SDS011;64313;51.018;13.742;2023-10-19T03:35:35;11.77;;;5.53;;
75698;SDS011;64313;51.018;13.742;2023-10-19T03:38:02;11.10;;;6.28;;
75698;SDS011;64313;51.018;13.742;2023-10-19T03:40:33;10.27;;;6.10;;
75698;SDS011;64313;51.018;13.742;2023-10-19T03:43:03;12.85;;;5.95;;
75698;SDS011;64313;51.018;13.742;2023-10-19T03:45:39;11.40;;;6.00;;
75698;SDS011;64313;51.018;13.742;2023-10-19T03:48:09;10.88;;;6.55;;
75698;SDS011;64313;51.018;13.742;2023-10-19T03:50:35;11.07;;;6.10;;
75698;SDS011;64313;51.018;13.742;2023-10-19T03:53:02;12.80;;;6.90;;
75698;SDS011;64313;51.018;13.742;2023-10-19T03:55:29;10.23;;;6.13;;
75698;SDS011;64313;51.018;13.742;2023-10-19T03:57:55;11.18;;;6.05;;
75698;SDS011;64313;51.018;13.742;2023-10-19T04:00:20;12.43;;;6.72;;
75698;SDS011;64313;51.018;13.742;2023-10-19T04:02:50;12.43;;;6.63;;
75698;SDS011;64313;51.018;13.742;2023-10-19T04:05:20;12.43;;;6.65;;
75698;SDS011;64313;51.018;13.742;2023-10-19T04:07:47;11.23;;;6.50;;
75698;SDS011;64313;51.018;13.742;2023-10-19T04:10:19;11.65;;;7.03;;
75698;SDS011;64313;51.018;13.742;2023-10-19T04:13:00;12.88;;;6.85;;
75698;SDS011;64313;51.018;13.742;2023-10-19T04:15:26;12.57;;;7.10;;
75698;SDS011;64313;51.018;13.742;2023-10-19T04:17:54;14.40;;;7.20;;
75698;SDS011;64313;51.018;13.742;2023-10-19T04:20:21;12.52;;;7.15;;
75698;SDS011;64313;51.018;13.742;2023-10-19T04:22:48;12.70;;;7.40;;
75698;SDS011;64313;51.018;13.742;2023-10-19T04:25:15;12.00;;;7.30;;
75698;SDS011;64313;51.018;13.742;2023-10-19T04:27:41;13.07;;;7.75;;
75698;SDS011;64313;51.018;13.742;2023-10-19T04:30:12;13.48;;;6.93;;
75698;SDS011;64313;51.018;13.742;2023-10-19T04:32:45;12.60;;;7.15;;
75698;SDS011;64313;51.018;13.742;2023-10-19T04:35:11;13.05;;;7.45;;
75698;SDS011;64313;51.018;13.742;2023-10-19T04:37:39;14.40;;;7.47;;
75698;SDS011;64313;51.018;13.742;2023-10-19T04:40:10;11.90;;;7.38;;
75698;SDS011;64313;51.018;13.742;2023-10-19T04:42:37;12.68;;;7.40;;
75698;SDS011;64313;51.018;13.742;2023-10-19T04:45:03;13.70;;;7.47;;
75698;SDS011;64313;51.018;13.742;2023-10-19T04:47:30;13.35;;;7.13;;
75698;SDS011;64313;51.018;13.742;2023-10-19T04:49:56;13.93;;;7.40;;
75698;SDS011;64313;51.018;13.742;2023-10-19T04:52:21;12.18;;;7.43;;
75698;SDS011;64313;51.018;13.742;2023-10-19T04:54:47;15.68;;;8.50;;
75698;SDS011;64313;51.018;13.742;2023-10-19T04:57:12;13.65;;;7.93;;
75698;SDS011;64313;51.018;13.742;2023-10-19T04:59:37;14.43;;;7.72;;
75698;SDS011;64313;51.018;13.742;2023-10-19T05:02:03;12.82;;;7.75;;
75698;SDS011;64313;51.018;13.742;2023-10-19T05:04:29;16.83;;;7.47;;
75698;SDS011;64313;51.018;13.742;2023-10-19T05:06:54;15.43;;;8.13;;
75698;SDS011;64313;51.018;13.742;2023-10-19T05:09:20;15.82;;;9.10;;
75698;SDS011;64313;51.018;13.742;2023-10-19T05:11:46;13.68;;;8.55;;
75698;SDS011;64313;51.018;13.742;2023-10-19T05:14:12;14.80;;;8.25;;
75698;SDS011;64313;51.018;13.742;2023-10-19T05:16:39;13.95;;;8.10;;
75698;SDS011;64313;51.018;13.742;2023-10-19T05:19:04;15.88;;;8.57;;
75698;SDS011;64313;51.018;13.742;2023-10-19T05:21:30;12.23;;;8.05;;
75698;SDS011;64313;51.018;13.742;2023-10-19T05:23:55;13.55;;;8.13;;
75698;SDS011;64313;51.018;13.742;2023-10-19T05:26:21;13.95;;;8.15;;
75698;SDS011;64313;51.018;13.742;2023-10-19T05:28:46;14.07;;;9.20;;
75698;SDS011;64313;51.018;13.742;2023-10-19T05:31:13;13.93;;;8.35;;
75698;SDS011;64313;51.018;13.742;2023-10-19T05:33:38;14.90;;;7.97;;
75698;SDS011;64313;51.018;13.742;2023-10-19T05:36:04;15.25;;;8.55;;
75698;SDS011;64313;51.018;13.742;2023-10-19T05:38:30;13.40;;;8.30;;
75698;SDS011;64313;51.018;13.742;2023-10-19T05:40:57;13.18;;;8.30;;
75698;SDS011;64313;51.018;13.742;2023-10-19T05:43:24;13.80;;;8.73;;
75698;SDS011;64313;51.018;13.742;2023-10-19T05:45:50;13.27;;;8.30;;
75698;SDS011;64313;51.018;13.742;2023-10-19T05:48:16;14.35;;;9.02;;
75698;SDS011;64313;51.018;13.742;2023-10-19T05:50:41;13.93;;;7.47;;
75698;SDS011;64313;51.018;13.742;2023-10-19T05:53:07;14.32;;;8.63;;
75698;SDS011;64313;51.018;13.742;2023-10-19T05:55:33;13.25;;;8.68;;
75698;SDS011;64313;51.018;13.742;2023-10-19T05:58:00;14.00;;;7.97;;
75698;SDS011;64313;51.018;13.742;2023-10-19T06:00:30;14.70;;;8.27;;
75698;SDS011;64313;51.018;13.742;2023-10-19T06:02:56;13.95;;;8.20;;
75698;SDS011;64313;51.018;13.742;2023-10-19T06:05:22;13.90;;;7.88;;
75698;SDS011;64313;51.018;13.742;2023-10-19T06:07:49;15.07;;;9.07;;
75698;SDS011;64313;51.018;13.742;2023-10-19T06:10:19;14.27;;;8.80;;
75698;SDS011;64313;51.018;13.742;2023-10-19T06:12:46;16.17;;;9.57;;
75698;SDS011;64313;51.018;13.742;2023-10-19T06:15:13;15.50;;;9.48;;
75698;SDS011;64313;51.018;13.742;2023-10-19T06:17:40;13.43;;;9.20;;
75698;SDS011;64313;51.018;13.742;2023-10-19T06:20:10;13.52;;;8.85;;
75698;SDS011;64313;51.018;13.742;2023-10-19T06:22:49;14.48;;;9.32;;
75698;SDS011;64313;51.018;13.742;2023-10-19T06:25:18;15.25;;;8.98;;
75698;SDS011;64313;51.018;13.742;2023-10-19T06:27:46;17.23;;;9.80;;
75698;SDS011;64313;51.018;13.742;2023-10-19T06:30:12;14.02;;;8.95;;
75698;SDS011;64313;51.018;13.742;2023-10-19T06:32:48;15.30;;;8.88;;
75698;SDS011;64313;51.018;13.742;2023-10-19T06:35:16;14.50;;;9.38;;
75698;SDS011;64313;51.018;13.742;2023-10-19T06:37:42;14.52;;;8.63;;
75698;SDS011;64313;51.018;13.742;2023-10-19T06:40:09;15.98;;;8.95;;
75698;SDS011;64313;51.018;13.742;2023-10-19T06:42:36;16.98;;;9.23;;
75698;SDS011;64313;51.018;13.742;2023-10-19T06:45:02;15.30;;;9.43;;
75698;SDS011;64313;51.018;13.742;2023-10-19T06:47:28;16.52;;;10.02;;
75698;SDS011;64313;51.018;13.742;2023-10-19T06:49:54;15.85;;;10.10;;
75698;SDS011;64313;51.018;13.742;2023-10-19T06:52:21;15.13;;;9.70;;
75698;SDS011;64313;51.018;13.742;2023-10-19T06:54:46;17.50;;;9.63;;
75698;SDS011;64313;51.018;13.742;2023-10-19T06:57:11;17.13;;;9.60;;
75698;SDS011;64313;51.018;13.742;2023-10-19T06:59:37;16.08;;;9.23;;
75698;SDS011;64313;51.018;13.742;2023-10-19T07:02:02;14.73;;;9.45;;
75698;SDS011;64313;51.018;13.742;2023-10-19T07:04:28;16.35;;;10.68;;
75698;SDS011;64313;51.018;13.742;2023-10-19T07:06:54;18.60;;;10.77;;
75698;SDS011;64313;51.018;13.742;2023-10-19T07:09:20;16.25;;;9.95;;
75698;SDS011;64313;51.018;13.742;2023-10-19T07:11:46;15.13;;;9.65;;
75698;SDS011;64313;51.018;13.742;2023-10-19T07:14:12;17.38;;;10.75;;
75698;SDS011;64313;51.018;13.742;2023-10-19T07:16:39;16.70;;;9.18;;
75698;SDS011;64313;51.018;13.742;2023-10-19T07:19:05;16.25;;;10.38;;
75698;SDS011;64313;51.018;13.742;2023-10-19T07:21:30;17.15;;;10.73;;
75698;SDS011;64313;51.018;13.742;2023-10-19T07:24:00;17.33;;;10.95;;
75698;SDS011;64313;51.018;13.742;2023-10-19T07:26:30;16.50;;;10.15;;
75698;SDS011;64313;51.018;13.742;2023-10-19T07:28:58;18.30;;;10.30;;
75698;SDS011;64313;51.018;13.742;2023-10-19T07:31:24;16.20;;;10.55;;
75698;SDS011;64313;51.018;13.742;2023-10-19T07:33:52;17.45;;;9.70;;
75698;SDS011;64313;51.018;13.742;2023-10-19T07:36:20;17.63;;;10.10;;
75698;SDS011;64313;51.018;13.742;2023-10-19T07:38:46;16.23;;;9.95;;
75698;SDS011;64313;51.018;13.742;2023-10-19T07:41:12;14.55;;;9.55;;
75698;SDS011;64313;51.018;13.742;2023-10-19T07:43:38;16.50;;;10.50;;
75698;SDS011;64313;51.018;13.742;2023-10-19T07:46:04;15.27;;;9.95;;
75698;SDS011;64313;51.018;13.742;2023-10-19T07:48:30;16.60;;;10.32;;
75698;SDS011;64313;51.018;13.742;2023-10-19T07:50:55;14.68;;;9.95;;
75698;SDS011;64313;51.018;13.742;2023-10-19T07:53:20;17.52;;;10.75;;
75698;SDS011;64313;51.018;13.742;2023-10-19T07:55:46;14.55;;;9.23;;
75698;SDS011;64313;51.018;13.742;2023-10-19T07:58:12;17.52;;;10.50;;
75698;SDS011;64313;51.018;13.742;2023-10-19T08:00:37;15.10;;;8.90;;
75698;SDS011;64313;51.018;13.742;2023-10-19T08:03:04;15.05;;;10.45;;
75698;SDS011;64313;51.018;13.742;2023-10-19T08:05:30;16.85;;;9.80;;
75698;SDS011;64313;51.018;13.742;2023-10-19T08:07:56;15.27;;;10.15;;
75698;SDS011;64313;51.018;13.742;2023-10-19T08:10:24;15.45;;;10.38;;
75698;SDS011;64313;51.018;13.742;2023-10-19T08:12:50;16.58;;;10.50;;
75698;SDS011;64313;51.018;13.742;2023-10-19T08:15:17;16.60;;;10.07;;
75698;SDS011;64313;51.018;13.742;2023-10-19T08:17:45;15.48;;;10.20;;
75698;SDS011;64313;51.018;13.742;2023-10-19T08:20:15;15.82;;;9.75;;
75698;SDS011;64313;51.018;13.742;2023-10-19T08:22:53;17.63;;;10.18;;
75698;SDS011;64313;51.018;13.742;2023-10-19T08:25:22;16.63;;;9.88;;
75698;SDS011;64313;51.018;13.742;2023-10-19T08:27:47;16.88;;;9.25;;
75698;SDS011;64313;51.018;13.742;2023-10-19T08:30:19;17.00;;;10.55;;
75698;SDS011;64313;51.018;13.742;2023-10-19T08:32:46;15.57;;;10.10;;
75698;SDS011;64313;51.018;13.742;2023-10-19T08:35:13;15.68;;;10.68;;
75698;SDS011;64313;51.018;13.742;2023-10-19T08:37:39;16.45;;;9.60;;
75698;SDS011;64313;51.018;13.742;2023-10-19T08:40:09;15.82;;;9.77;;
75698;SDS011;64313;51.018;13.742;2023-10-19T08:42:43;15.65;;;10.85;;
75698;SDS011;64313;51.018;13.742;2023-10-19T08:45:10;17.73;;;10.25;;
75698;SDS011;64313;51.018;13.742;2023-10-19T08:47:54;15.35;;;10.13;;
75698;SDS011;64313;51.018;13.742;2023-10-19T08:50:22;16.00;;;9.85;;
75698;SDS011;64313;51.018;13.742;2023-10-19T08:52:52;16.30;;;9.68;;
75698;SDS011;64313;51.018;13.742;2023-10-19T08:55:19;16.27;;;9.95;;
75698;SDS011;64313;51.018;13.742;2023-10-19T08:57:45;13.80;;;9.63;;
75698;SDS011;64313;51.018;13.742;2023-10-19T09:00:14;14.27;;;9.35;;
75698;SDS011;64313;51.018;13.742;2023-10-19T09:02:42;15.23;;;9.63;;
75698;SDS011;64313;51.018;13.742;2023-10-19T09:05:08;12.93;;;8.68;;
75698;SDS011;64313;51.018;13.742;2023-10-19T09:07:34;15.95;;;9.13;;
75698;SDS011;64313;51.018;13.742;2023-10-19T09:10:00;13.38;;;8.32;;
75698;SDS011;64313;51.018;13.742;2023-10-19T09:12:26;13.75;;;9.05;;
75698;SDS011;64313;51.018;13.742;2023-10-19T09:14:52;13.38;;;8.60;;
75698;SDS011;64313;51.018;13.742;2023-10-19T09:17:27;13.52;;;9.13;;
75698;SDS011;64313;51.018;13.742;2023-10-19T09:19:54;13.35;;;8.65;;
75698;SDS011;64313;51.018;13.742;2023-10-19T09:22:21;12.23;;;7.93;;
75698;SDS011;64313;51.018;13.742;2023-10-19T09:24:49;12.38;;;8.00;;
75698;SDS011;64313;51.018;13.742;2023-10-19T09:27:18;11.85;;;8.05;;
75698;SDS011;64313;51.018;13.742;2023-10-19T09:29:44;14.07;;;8.57;;
75698;SDS011;64313;51.018;13.742;2023-10-19T09:32:10;16.00;;;9.38;;
75698;SDS011;64313;51.018;13.742;2023-10-19T09:34:38;14.20;;;8.70;;
75698;SDS011;64313;51.018;13.742;2023-10-19T09:37:06;13.43;;;8.90;;
75698;SDS011;64313;51.018;13.742;2023-10-19T09:39:31;11.68;;;8.00;;
75698;SDS011;64313;51.018;13.742;2023-10-19T09:42:05;12.80;;;8.10;;
75698;SDS011;64313;51.018;13.742;2023-10-19T09:44:41;12.75;;;8.48;;
75698;SDS011;64313;51.018;13.742;2023-10-19T09:47:11;12.15;;;7.53;;
75698;SDS011;64313;51.018;13.742;2023-10-19T09:49:41;13.55;;;7.88;;
75698;SDS011;64313;51.018;13.742;2023-10-19T09:52:08;12.23;;;7.90;;
75698;SDS011;64313;51.018;13.742;2023-10-19T09:54:42;12.82;;;7.50;;
75698;SDS011;64313;51.018;13.742;2023-10-19T09:57:16;11.95;;;7.20;;
75698;SDS011;64313;51.018;13.742;2023-10-19T09:59:49;11.75;;;7.97;;
75698;SDS011;64313;51.018;13.742;2023-10-19T10:02:20;13.05;;;8.20;;
75698;SDS011;64313;51.018;13.742;2023-10-19T10:04:47;12.50;;;7.45;;
75698;SDS011;64313;51.018;13.742;2023-10-19T10:07:14;12.75;;;7.93;;
75698;SDS011;64313;51.018;13.742;2023-10-19T10:09:41;12.02;;;7.40;;
75698;SDS011;64313;51.018;13.742;2023-10-19T10:12:20;12.55;;;7.38;;
75698;SDS011;64313;51.018;13.742;2023-10-19T10:15:08;13.35;;;8.23;;
75698;SDS011;64313;51.018;13.742;2023-10-19T10:17:34;14.90;;;8.15;;
75698;SDS011;64313;51.018;13.742;2023-10-19T10:22:42;13.77;;;8.35;;
75698;SDS011;64313;51.018;13.742;2023-10-19T10:25:08;13.85;;;8.48;;
75698;SDS011;64313;51.018;13.742;2023-10-19T10:27:50;13.93;;;8.48;;
75698;SDS011;64313;51.018;13.742;2023-10-19T10:30:16;14.85;;;8.50;;
75698;SDS011;64313;51.018;13.742;2023-10-19T10:38:02;14.98;;;8.60;;
75698;SDS011;64313;51.018;13.742;2023-10-19T10:40:30;14.00;;;9.02;;
75698;SDS011;64313;51.018;13.742;2023-10-19T10:43:06;15.85;;;9.90;;
75698;SDS011;64313;51.018;13.742;2023-10-19T10:45:32;14.30;;;9.35;;
75698;SDS011;64313;51.018;13.742;2023-10-19T10:47:57;15.63;;;10.02;;
75698;SDS011;64313;51.018;13.742;2023-10-19T10:50:26;14.93;;;10.13;;
75698;SDS011;64313;51.018;13.742;2023-10-19T10:52:53;15.43;;;10.30;;
75698;SDS011;64313;51.018;13.742;2023-10-19T10:55:22;16.42;;;10.27;;
75698;SDS011;64313;51.018;13.742;2023-10-19T10:57:50;16.83;;;11.10;;
75698;SDS011;64313;51.018;13.742;2023-10-19T11:00:16;15.80;;;10.80;;
75698;SDS011;64313;51.018;13.742;2023-10-19T11:02:44;17.90;;;11.05;;
75698;SDS011;64313;51.018;13.742;2023-10-19T11:05:15;17.67;;;12.35;;
75698;SDS011;64313;51.018;13.742;2023-10-19T11:08:02;19.25;;;11.52;;
75698;SDS011;64313;51.018;13.742;2023-10-19T11:10:29;19.77;;;12.70;;
75698;SDS011;64313;51.018;13.742;2023-10-19T11:15:33;21.95;;;13.00;;
75698;SDS011;64313;51.018;13.742;2023-10-19T11:17:59;17.55;;;11.80;;
75698;SDS011;64313;51.018;13.742;2023-10-19T11:20:26;19.80;;;12.55;;
75698;SDS011;64313;51.018;13.742;2023-10-19T11:22:53;20.45;;;11.85;;
75698;SDS011;64313;51.018;13.742;2023-10-19T11:25:24;17.30;;;11.90;;
75698;SDS011;64313;51.018;13.742;2023-10-19T11:27:54;19.70;;;11.45;;
75698;SDS011;64313;51.018;13.742;2023-10-19T11:30:24;18.73;;;12.10;;
75698;SDS011;64313;51.018;13.742;2023-10-19T11:32:54;19.98;;;12.48;;
75698;SDS011;64313;51.018;13.742;2023-10-19T11:35:26;19.48;;;12.52;;
75698;SDS011;64313;51.018;13.742;2023-10-19T11:37:55;20.27;;;12.82;;
75698;SDS011;64313;51.018;13.742;2023-10-19T11:40:22;18.63;;;11.73;;
75698;SDS011;64313;51.018;13.742;2023-10-19T11:42:49;18.20;;;11.93;;
75698;SDS011;64313;51.018;13.742;2023-10-19T11:45:15;21.15;;;12.18;;
75698;SDS011;64313;51.018;13.742;2023-10-19T11:47:45;20.00;;;12.13;;
75698;SDS011;64313;51.018;13.742;2023-10-19T11:50:12;20.08;;;12.00;;
75698;SDS011;64313;51.018;13.742;2023-10-19T11:52:39;21.67;;;13.32;;
75698;SDS011;64313;51.018;13.742;2023-10-19T11:55:05;19.88;;;13.55;;
75698;SDS011;64313;51.018;13.742;2023-10-19T11:57:31;19.23;;;13.10;;
75698;SDS011;64313;51.018;13.742;2023-10-19T11:59:57;19.00;;;12.55;;
75698;SDS011;64313;51.018;13.742;2023-10-19T12:02:24;19.33;;;12.07;;
75698;SDS011;64313;51.018;13.742;2023-10-19T12:04:49;19.35;;;12.45;;
75698;SDS011;64313;51.018;13.742;2023-10-19T12:07:15;19.52;;;12.55;;
75698;SDS011;64313;51.018;13.742;2023-10-19T12:09:41;19.48;;;12.45;;
75698;SDS011;64313;51.018;13.742;2023-10-19T12:12:06;19.60;;;12.70;;
75698;SDS011;64313;51.018;13.742;2023-10-19T12:14:34;19.30;;;12.68;;
75698;SDS011;64313;51.018;13.742;2023-10-19T12:17:00;19.30;;;12.70;;
75698;SDS011;64313;51.018;13.742;2023-10-19T12:19:29;19.63;;;12.90;;
75698;SDS011;64313;51.018;13.742;2023-10-19T12:21:55;21.55;;;13.13;;
75698;SDS011;64313;51.018;13.742;2023-10-19T12:24:21;18.85;;;12.73;;
75698;SDS011;64313;51.018;13.742;2023-10-19T12:26:46;21.13;;;12.10;;
75698;SDS011;64313;51.018;13.742;2023-10-19T12:29:12;22.48;;;12.80;;
75698;SDS011;64313;51.018;13.742;2023-10-19T12:31:39;17.17;;;11.00;;
75698;SDS011;64313;51.018;13.742;2023-10-19T12:34:05;19.27;;;12.15;;
75698;SDS011;64313;51.018;13.742;2023-10-19T12:36:32;17.75;;;11.77;;
75698;SDS011;64313;51.018;13.742;2023-10-19T12:39:00;20.67;;;12.55;;
75698;SDS011;64313;51.018;13.742;2023-10-19T12:41:27;18.55;;;13.05;;
75698;SDS011;64313;51.018;13.742;2023-10-19T12:43:53;19.42;;;11.93;;
75698;SDS011;64313;51.018;13.742;2023-10-19T12:46:32;19.83;;;12.18;;
75698;SDS011;64313;51.018;13.742;2023-10-19T12:49:01;18.98;;;12.70;;
75698;SDS011;64313;51.018;13.742;2023-10-19T12:51:29;19.05;;;12.77;;
75698;SDS011;64313;51.018;13.742;2023-10-19T12:53:55;21.60;;;12.60;;
75698;SDS011;64313;51.018;13.742;2023-10-19T12:56:21;18.67;;;12.90;;
75698;SDS011;64313;51.018;13.742;2023-10-19T12:58:49;19.98;;;13.48;;
75698;SDS011;64313;51.018;13.742;2023-10-19T13:01:15;20.92;;;13.43;;
75698;SDS011;64313;51.018;13.742;2023-10-19T13:03:44;20.73;;;13.35;;
75698;SDS011;64313;51.018;13.742;2023-10-19T13:06:14;21.48;;;12.63;;
75698;SDS011;64313;51.018;13.742;2023-10-19T13:08:40;19.55;;;12.63;;
75698;SDS011;64313;51.018;13.742;2023-10-19T13:11:09;22.90;;;12.57;;
75698;SDS011;64313;51.018;13.742;2023-10-19T13:13:40;21.50;;;12.95;;
75698;SDS011;64313;51.018;13.742;2023-10-19T13:16:06;21.95;;;12.73;;
75698;SDS011;64313;51.018;13.742;2023-10-19T13:18:33;21.08;;;12.93;;
75698;SDS011;64313;51.018;13.742;2023-10-19T13:20:59;23.05;;;14.10;;
75698;SDS011;64313;51.018;13.742;2023-10-19T13:23:34;22.48;;;14.25;;
75698;SDS011;64313;51.018;13.742;2023-10-19T13:26:00;21.85;;;14.13;;
75698;SDS011;64313;51.018;13.742;2023-10-19T13:28:32;21.83;;;13.45;;
75698;SDS011;64313;51.018;13.742;2023-10-19T13:30:57;22.33;;;13.82;;
75698;SDS011;64313;51.018;13.742;2023-10-19T13:33:22;22.13;;;14.15;;
75698;SDS011;64313;51.018;13.742;2023-10-19T13:35:49;19.92;;;13.40;;
75698;SDS011;64313;51.018;13.742;2023-10-19T13:38:15;22.70;;;13.85;;
75698;SDS011;64313;51.018;13.742;2023-10-19T13:40:42;22.02;;;14.18;;
75698;SDS011;64313;51.018;13.742;2023-10-19T13:43:09;25.02;;;15.18;;
75698;SDS011;64313;51.018;13.742;2023-10-19T13:45:39;24.52;;;14.70;;
75698;SDS011;64313;51.018;13.742;2023-10-19T13:48:05;23.48;;;14.82;;
75698;SDS011;64313;51.018;13.742;2023-10-19T13:50:32;22.85;;;14.18;;
75698;SDS011;64313;51.018;13.742;2023-10-19T13:53:00;21.10;;;13.48;;
75698;SDS011;64313;51.018;13.742;2023-10-19T13:55:26;20.10;;;13.35;;
75698;SDS011;64313;51.018;13.742;2023-10-19T13:57:52;22.10;;;14.43;;
75698;SDS011;64313;51.018;13.742;2023-10-19T14:00:18;22.08;;;14.50;;
75698;SDS011;64313;51.018;13.742;2023-10-19T14:02:48;21.00;;;14.18;;
75698;SDS011;64313;51.018;13.742;2023-10-19T14:05:14;23.05;;;14.57;;
75698;SDS011;64313;51.018;13.742;2023-10-19T14:07:40;23.95;;;15.20;;
75698;SDS011;64313;51.018;13.742;2023-10-19T14:10:06;23.20;;;13.77;;
75698;SDS011;64313;51.018;13.742;2023-10-19T14:12:32;24.45;;;15.27;;
75698;SDS011;64313;51.018;13.742;2023-10-19T14:14:58;22.02;;;15.20;;
75698;SDS011;64313;51.018;13.742;2023-10-19T14:17:23;23.65;;;15.32;;
75698;SDS011;64313;51.018;13.742;2023-10-19T14:19:50;24.13;;;14.82;;
75698;SDS011;64313;51.018;13.742;2023-10-19T14:22:15;23.00;;;14.70;;
75698;SDS011;64313;51.018;13.742;2023-10-19T14:24:41;22.85;;;14.60;;
75698;SDS011;64313;51.018;13.742;2023-10-19T14:27:06;21.27;;;14.48;;
75698;SDS011;64313;51.018;13.742;2023-10-19T14:29:34;21.80;;;14.77;;
75698;SDS011;64313;51.018;13.742;2023-10-19T14:31:59;23.90;;;14.80;;
75698;SDS011;64313;51.018;13.742;2023-10-19T14:34:25;22.08;;;15.07;;
75698;SDS011;64313;51.018;13.742;2023-10-19T14:36:52;23.80;;;14.27;;
75698;SDS011;64313;51.018;13.742;2023-10-19T14:39:18;24.90;;;14.90;;
75698;SDS011;64313;51.018;13.742;2023-10-19T14:41:45;22.05;;;14.35;;
75698;SDS011;64313;51.018;13.742;2023-10-19T14:44:11;22.73;;;14.55;;